sensor_id;sensor_type;location;lat;lon;timestamp;temperature;humidity
2851;DHT22;1433;49.976;8.342;2022-10-26T00:01:03;11.40;99.90
2851;DHT22;1433;49.976;8.342;2022-10-26T00:03:35;11.40;99.90
2851;DHT22;1433;49.976;8.342;2022-10-26T00:06:05;11.50;99.90
2851;DHT22;1433;49.976;8.342;2022-10-26T00:08:33;11.40;99.90
2851;DHT22;1433;49.976;8.342;2022-10-26T00:11:00;11.40;99.90
2851;DHT22;1433;49.976;8.342;2022-10-26T00:13:26;11.50;99.90
2851;DHT22;1433;49.976;8.342;2022-10-26T00:15:53;11.50;99.90
2851;DHT22;1433;49.976;8.342;2022-10-26T00:18:20;11.50;99.90
2851;DHT22;1433;49.976;8.342;2022-10-26T00:20:47;11.60;99.90
2851;DHT22;1433;49.976;8.342;2022-10-26T00:23:13;11.60;99.90
2851;DHT22;1433;49.976;8.342;2022-10-26T00:25:39;11.60;99.90
2851;DHT22;1433;49.976;8.342;2022-10-26T00:28:05;11.50;99.90
2851;DHT22;1433;49.976;8.342;2022-10-26T00:30:34;11.60;99.90
2851;DHT22;1433;49.976;8.342;2022-10-26T00:33:02;11.70;99.90
2851;DHT22;1433;49.976;8.342;2022-10-26T00:35:29;11.70;99.90
2851;DHT22;1433;49.976;8.342;2022-10-26T00:37:55;11.70;99.90
2851;DHT22;1433;49.976;8.342;2022-10-26T00:40:27;11.80;99.90
2851;DHT22;1433;49.976;8.342;2022-10-26T00:42:54;11.80;99.90
2851;DHT22;1433;49.976;8.342;2022-10-26T00:45:24;11.80;99.90
2851;DHT22;1433;49.976;8.342;2022-10-26T00:48:04;11.90;99.90
2851;DHT22;1433;49.976;8.342;2022-10-26T00:50:35;11.90;99.90
2851;DHT22;1433;49.976;8.342;2022-10-26T00:53:05;11.90;99.90
2851;DHT22;1433;49.976;8.342;2022-10-26T00:55:34;11.90;99.90
2851;DHT22;1433;49.976;8.342;2022-10-26T00:58:07;12.00;99.90
2851;DHT22;1433;49.976;8.342;2022-10-26T01:00:35;12.00;99.90
2851;DHT22;1433;49.976;8.342;2022-10-26T01:03:04;12.00;99.90
2851;DHT22;1433;49.976;8.342;2022-10-26T01:05:33;12.00;99.90
2851;DHT22;1433;49.976;8.342;2022-10-26T01:08:00;12.00;99.90
2851;DHT22;1433;49.976;8.342;2022-10-26T01:10:27;12.00;99.90
2851;DHT22;1433;49.976;8.342;2022-10-26T01:12:56;12.00;99.90
2851;DHT22;1433;49.976;8.342;2022-10-26T01:15:47;12.00;99.90
2851;DHT22;1433;49.976;8.342;2022-10-26T01:21:08;12.10;99.90
2851;DHT22;1433;49.976;8.342;2022-10-26T01:32:09;12.30;99.90
2851;DHT22;1433;49.976;8.342;2022-10-26T01:34:51;12.20;99.90
2851;DHT22;1433;49.976;8.342;2022-10-26T01:37:27;12.20;99.90
2851;DHT22;1433;49.976;8.342;2022-10-26T01:40:02;12.20;99.90
2851;DHT22;1433;49.976;8.342;2022-10-26T01:42:30;12.30;99.90
2851;DHT22;1433;49.976;8.342;2022-10-26T01:45:00;12.20;99.90
2851;DHT22;1433;49.976;8.342;2022-10-26T01:47:30;12.20;99.90
2851;DHT22;1433;49.976;8.342;2022-10-26T01:49:59;12.20;99.90
2851;DHT22;1433;49.976;8.342;2022-10-26T01:52:26;12.30;99.90
2851;DHT22;1433;49.976;8.342;2022-10-26T01:55:05;12.20;99.90
2851;DHT22;1433;49.976;8.342;2022-10-26T01:57:35;12.30;99.90
2851;DHT22;1433;49.976;8.342;2022-10-26T02:00:08;12.30;99.90
2851;DHT22;1433;49.976;8.342;2022-10-26T02:02:48;12.30;99.90
2851;DHT22;1433;49.976;8.342;2022-10-26T02:16:55;12.30;99.90
2851;DHT22;1433;49.976;8.342;2022-10-26T02:19:32;12.20;99.90
2851;DHT22;1433;49.976;8.342;2022-10-26T02:22:18;12.10;99.90
2851;DHT22;1433;49.976;8.342;2022-10-26T02:24:51;12.00;99.90
2851;DHT22;1433;49.976;8.342;2022-10-26T02:27:30;12.00;99.90
2851;DHT22;1433;49.976;8.342;2022-10-26T02:29:58;12.00;99.90
2851;DHT22;1433;49.976;8.342;2022-10-26T02:32:27;12.10;99.90
2851;DHT22;1433;49.976;8.342;2022-10-26T02:34:57;12.10;99.90
2851;DHT22;1433;49.976;8.342;2022-10-26T02:37:26;12.10;99.90
2851;DHT22;1433;49.976;8.342;2022-10-26T02:39:54;12.10;99.90
2851;DHT22;1433;49.976;8.342;2022-10-26T02:42:23;12.10;99.90
2851;DHT22;1433;49.976;8.342;2022-10-26T02:44:57;12.10;99.90
2851;DHT22;1433;49.976;8.342;2022-10-26T02:47:28;12.10;99.90
2851;DHT22;1433;49.976;8.342;2022-10-26T02:49:55;12.10;99.90
2851;DHT22;1433;49.976;8.342;2022-10-26T02:55:11;12.10;99.90
2851;DHT22;1433;49.976;8.342;2022-10-26T02:57:46;12.10;99.90
2851;DHT22;1433;49.976;8.342;2022-10-26T03:00:16;12.10;99.90
2851;DHT22;1433;49.976;8.342;2022-10-26T03:02:45;12.20;99.90
2851;DHT22;1433;49.976;8.342;2022-10-26T03:05:28;12.20;99.90
2851;DHT22;1433;49.976;8.342;2022-10-26T03:07:52;12.20;99.90
2851;DHT22;1433;49.976;8.342;2022-10-26T03:10:19;12.20;99.90
2851;DHT22;1433;49.976;8.342;2022-10-26T03:12:46;12.20;99.90
2851;DHT22;1433;49.976;8.342;2022-10-26T03:15:12;12.20;99.90
2851;DHT22;1433;49.976;8.342;2022-10-26T03:17:38;12.20;99.90
2851;DHT22;1433;49.976;8.342;2022-10-26T03:20:08;12.30;99.90
2851;DHT22;1433;49.976;8.342;2022-10-26T03:22:37;12.20;99.90
2851;DHT22;1433;49.976;8.342;2022-10-26T03:25:04;12.20;99.90
2851;DHT22;1433;49.976;8.342;2022-10-26T03:27:31;12.20;99.90
2851;DHT22;1433;49.976;8.342;2022-10-26T03:29:57;12.10;99.90
2851;DHT22;1433;49.976;8.342;2022-10-26T03:32:23;12.20;99.90
2851;DHT22;1433;49.976;8.342;2022-10-26T03:34:50;12.20;99.90
2851;DHT22;1433;49.976;8.342;2022-10-26T03:37:16;12.30;99.90
2851;DHT22;1433;49.976;8.342;2022-10-26T03:39:42;12.30;99.90
2851;DHT22;1433;49.976;8.342;2022-10-26T03:42:08;12.30;99.90
2851;DHT22;1433;49.976;8.342;2022-10-26T03:44:35;12.30;99.90
2851;DHT22;1433;49.976;8.342;2022-10-26T03:47:01;12.30;99.90
2851;DHT22;1433;49.976;8.342;2022-10-26T03:49:27;12.30;99.90
2851;DHT22;1433;49.976;8.342;2022-10-26T03:51:53;12.30;99.90
2851;DHT22;1433;49.976;8.342;2022-10-26T03:54:20;12.30;99.90
2851;DHT22;1433;49.976;8.342;2022-10-26T03:56:46;12.40;99.90
2851;DHT22;1433;49.976;8.342;2022-10-26T03:59:12;12.30;99.90
2851;DHT22;1433;49.976;8.342;2022-10-26T04:01:38;12.40;99.90
2851;DHT22;1433;49.976;8.342;2022-10-26T04:04:05;12.40;99.90
2851;DHT22;1433;49.976;8.342;2022-10-26T04:06:31;12.40;99.90
2851;DHT22;1433;49.976;8.342;2022-10-26T04:08:57;12.30;99.90
2851;DHT22;1433;49.976;8.342;2022-10-26T04:11:26;12.40;99.90
2851;DHT22;1433;49.976;8.342;2022-10-26T04:13:52;12.40;99.90
2851;DHT22;1433;49.976;8.342;2022-10-26T04:16:18;12.30;99.90
2851;DHT22;1433;49.976;8.342;2022-10-26T04:18:46;12.30;99.90
2851;DHT22;1433;49.976;8.342;2022-10-26T04:21:15;12.30;99.90
2851;DHT22;1433;49.976;8.342;2022-10-26T04:23:41;12.30;99.90
2851;DHT22;1433;49.976;8.342;2022-10-26T04:26:08;12.30;99.90
2851;DHT22;1433;49.976;8.342;2022-10-26T04:28:34;12.20;99.90
2851;DHT22;1433;49.976;8.342;2022-10-26T04:31:00;12.20;99.90
2851;DHT22;1433;49.976;8.342;2022-10-26T04:33:26;12.20;99.90
2851;DHT22;1433;49.976;8.342;2022-10-26T04:36:01;12.20;99.90
2851;DHT22;1433;49.976;8.342;2022-10-26T04:38:27;12.10;99.90
2851;DHT22;1433;49.976;8.342;2022-10-26T04:40:53;12.10;99.90
2851;DHT22;1433;49.976;8.342;2022-10-26T04:43:20;12.10;99.90
2851;DHT22;1433;49.976;8.342;2022-10-26T04:45:46;12.10;99.90
2851;DHT22;1433;49.976;8.342;2022-10-26T04:48:12;12.10;99.90
2851;DHT22;1433;49.976;8.342;2022-10-26T04:50:41;12.10;99.90
2851;DHT22;1433;49.976;8.342;2022-10-26T04:53:10;12.10;99.90
2851;DHT22;1433;49.976;8.342;2022-10-26T04:55:36;12.10;99.90
2851;DHT22;1433;49.976;8.342;2022-10-26T04:58:03;12.10;99.90
2851;DHT22;1433;49.976;8.342;2022-10-26T05:00:31;12.10;99.90
2851;DHT22;1433;49.976;8.342;2022-10-26T05:03:05;12.10;99.90
2851;DHT22;1433;49.976;8.342;2022-10-26T05:05:32;12.10;99.90
2851;DHT22;1433;49.976;8.342;2022-10-26T05:08:02;12.10;99.90
2851;DHT22;1433;49.976;8.342;2022-10-26T05:10:29;12.10;99.90
2851;DHT22;1433;49.976;8.342;2022-10-26T05:12:57;12.00;99.90
2851;DHT22;1433;49.976;8.342;2022-10-26T05:15:25;12.00;99.90
2851;DHT22;1433;49.976;8.342;2022-10-26T05:17:56;12.00;99.90
2851;DHT22;1433;49.976;8.342;2022-10-26T05:20:25;11.90;99.90
2851;DHT22;1433;49.976;8.342;2022-10-26T05:22:55;11.90;99.90
2851;DHT22;1433;49.976;8.342;2022-10-26T05:25:24;11.90;99.90
2851;DHT22;1433;49.976;8.342;2022-10-26T05:27:50;11.90;99.90
2851;DHT22;1433;49.976;8.342;2022-10-26T05:30:16;11.90;99.90
2851;DHT22;1433;49.976;8.342;2022-10-26T05:32:43;11.90;99.90
2851;DHT22;1433;49.976;8.342;2022-10-26T05:35:09;11.80;99.90
2851;DHT22;1433;49.976;8.342;2022-10-26T05:37:35;11.80;99.90
2851;DHT22;1433;49.976;8.342;2022-10-26T05:40:02;11.80;99.90
2851;DHT22;1433;49.976;8.342;2022-10-26T05:42:28;11.80;99.90
2851;DHT22;1433;49.976;8.342;2022-10-26T05:44:54;11.90;99.90
2851;DHT22;1433;49.976;8.342;2022-10-26T05:47:21;11.90;99.90
2851;DHT22;1433;49.976;8.342;2022-10-26T05:49:47;11.90;99.90
2851;DHT22;1433;49.976;8.342;2022-10-26T05:52:13;11.90;99.90
2851;DHT22;1433;49.976;8.342;2022-10-26T05:54:40;11.80;99.90
2851;DHT22;1433;49.976;8.342;2022-10-26T05:57:11;11.80;99.90
2851;DHT22;1433;49.976;8.342;2022-10-26T05:59:38;11.80;99.90
2851;DHT22;1433;49.976;8.342;2022-10-26T06:02:16;11.80;99.90
2851;DHT22;1433;49.976;8.342;2022-10-26T06:04:46;11.80;99.90
2851;DHT22;1433;49.976;8.342;2022-10-26T06:07:15;11.80;99.90
2851;DHT22;1433;49.976;8.342;2022-10-26T06:09:44;11.80;99.90
2851;DHT22;1433;49.976;8.342;2022-10-26T06:12:12;11.80;99.90
2851;DHT22;1433;49.976;8.342;2022-10-26T06:14:41;11.90;99.90
2851;DHT22;1433;49.976;8.342;2022-10-26T06:20:12;11.90;99.90
2851;DHT22;1433;49.976;8.342;2022-10-26T06:31:04;12.00;99.90
2851;DHT22;1433;49.976;8.342;2022-10-26T06:33:30;12.10;99.90
2851;DHT22;1433;49.976;8.342;2022-10-26T06:38:31;12.20;99.90
2851;DHT22;1433;49.976;8.342;2022-10-26T06:41:00;12.20;99.90
2851;DHT22;1433;49.976;8.342;2022-10-26T06:43:30;12.20;99.90
2851;DHT22;1433;49.976;8.342;2022-10-26T06:49:17;12.30;99.90
2851;DHT22;1433;49.976;8.342;2022-10-26T06:52:07;12.40;99.90
2851;DHT22;1433;49.976;8.342;2022-10-26T06:57:18;12.40;99.90
2851;DHT22;1433;49.976;8.342;2022-10-26T06:59:52;12.50;99.90
2851;DHT22;1433;49.976;8.342;2022-10-26T07:02:20;12.50;99.90
2851;DHT22;1433;49.976;8.342;2022-10-26T07:04:47;12.50;99.90
2851;DHT22;1433;49.976;8.342;2022-10-26T07:07:22;12.50;99.90
2851;DHT22;1433;49.976;8.342;2022-10-26T07:09:50;12.60;99.90
2851;DHT22;1433;49.976;8.342;2022-10-26T07:12:16;12.70;99.90
2851;DHT22;1433;49.976;8.342;2022-10-26T07:14:43;12.70;99.90
2851;DHT22;1433;49.976;8.342;2022-10-26T07:17:10;12.70;99.90
2851;DHT22;1433;49.976;8.342;2022-10-26T07:19:36;12.80;99.90
2851;DHT22;1433;49.976;8.342;2022-10-26T07:22:05;12.80;99.90
2851;DHT22;1433;49.976;8.342;2022-10-26T07:24:31;12.80;99.90
2851;DHT22;1433;49.976;8.342;2022-10-26T07:26:58;12.80;99.90
2851;DHT22;1433;49.976;8.342;2022-10-26T07:29:25;12.90;99.90
2851;DHT22;1433;49.976;8.342;2022-10-26T07:31:52;12.90;99.90
2851;DHT22;1433;49.976;8.342;2022-10-26T07:34:19;13.00;99.90
2851;DHT22;1433;49.976;8.342;2022-10-26T07:36:45;13.00;99.90
2851;DHT22;1433;49.976;8.342;2022-10-26T07:39:11;12.80;99.90
2851;DHT22;1433;49.976;8.342;2022-10-26T07:41:38;12.70;99.90
2851;DHT22;1433;49.976;8.342;2022-10-26T07:44:04;12.70;99.90
2851;DHT22;1433;49.976;8.342;2022-10-26T07:46:30;12.90;99.90
2851;DHT22;1433;49.976;8.342;2022-10-26T07:48:57;13.00;99.90
2851;DHT22;1433;49.976;8.342;2022-10-26T07:51:23;13.20;99.90
2851;DHT22;1433;49.976;8.342;2022-10-26T07:53:50;13.30;99.90
2851;DHT22;1433;49.976;8.342;2022-10-26T07:56:16;13.40;99.90
2851;DHT22;1433;49.976;8.342;2022-10-26T07:58:43;13.50;99.90
2851;DHT22;1433;49.976;8.342;2022-10-26T08:01:12;13.60;99.90
2851;DHT22;1433;49.976;8.342;2022-10-26T08:03:41;13.60;99.90
2851;DHT22;1433;49.976;8.342;2022-10-26T08:06:10;13.80;99.90
2851;DHT22;1433;49.976;8.342;2022-10-26T08:08:37;13.90;99.90
2851;DHT22;1433;49.976;8.342;2022-10-26T08:11:04;14.00;99.90
2851;DHT22;1433;49.976;8.342;2022-10-26T08:13:31;14.10;99.90
2851;DHT22;1433;49.976;8.342;2022-10-26T08:16:01;14.20;99.90
2851;DHT22;1433;49.976;8.342;2022-10-26T08:18:29;14.30;99.90
2851;DHT22;1433;49.976;8.342;2022-10-26T08:21:05;14.40;99.90
2851;DHT22;1433;49.976;8.342;2022-10-26T08:23:32;14.50;99.90
2851;DHT22;1433;49.976;8.342;2022-10-26T08:25:59;14.70;99.90
2851;DHT22;1433;49.976;8.342;2022-10-26T08:28:27;14.70;99.90
2851;DHT22;1433;49.976;8.342;2022-10-26T08:30:55;14.90;99.90
2851;DHT22;1433;49.976;8.342;2022-10-26T08:33:23;15.00;99.90
2851;DHT22;1433;49.976;8.342;2022-10-26T08:35:57;15.10;99.90
2851;DHT22;1433;49.976;8.342;2022-10-26T08:38:25;15.30;99.90
2851;DHT22;1433;49.976;8.342;2022-10-26T08:40:52;15.30;99.90
2851;DHT22;1433;49.976;8.342;2022-10-26T08:43:28;15.40;99.90
2851;DHT22;1433;49.976;8.342;2022-10-26T08:48:49;15.70;99.90
2851;DHT22;1433;49.976;8.342;2022-10-26T08:51:31;15.90;99.90
2851;DHT22;1433;49.976;8.342;2022-10-26T08:56:46;15.90;99.90
2851;DHT22;1433;49.976;8.342;2022-10-26T08:59:32;16.10;99.90
2851;DHT22;1433;49.976;8.342;2022-10-26T09:02:16;16.10;99.90
2851;DHT22;1433;49.976;8.342;2022-10-26T09:04:43;16.20;99.90
2851;DHT22;1433;49.976;8.342;2022-10-26T09:12:55;16.10;99.90
2851;DHT22;1433;49.976;8.342;2022-10-26T09:24:33;15.50;99.90
2851;DHT22;1433;49.976;8.342;2022-10-26T09:29:55;15.40;99.90
2851;DHT22;1433;49.976;8.342;2022-10-26T09:32:39;15.40;99.90
2851;DHT22;1433;49.976;8.342;2022-10-26T09:38:22;15.20;99.90
2851;DHT22;1433;49.976;8.342;2022-10-26T09:41:04;15.20;99.90
2851;DHT22;1433;49.976;8.342;2022-10-26T09:43:48;16.10;99.90
2851;DHT22;1433;49.976;8.342;2022-10-26T09:47:02;16.20;99.90
2851;DHT22;1433;49.976;8.342;2022-10-26T09:49:50;16.20;99.90
2851;DHT22;1433;49.976;8.342;2022-10-26T09:52:21;16.40;99.90
2851;DHT22;1433;49.976;8.342;2022-10-26T09:54:47;16.60;99.90
2851;DHT22;1433;49.976;8.342;2022-10-26T09:57:15;16.70;99.90
2851;DHT22;1433;49.976;8.342;2022-10-26T09:59:44;16.70;99.90
2851;DHT22;1433;49.976;8.342;2022-10-26T10:05:21;16.80;99.90
2851;DHT22;1433;49.976;8.342;2022-10-26T10:08:21;16.80;99.90
2851;DHT22;1433;49.976;8.342;2022-10-26T10:11:13;16.80;99.90
2851;DHT22;1433;49.976;8.342;2022-10-26T10:13:39;16.80;99.90
2851;DHT22;1433;49.976;8.342;2022-10-26T10:18:55;16.90;99.90
2851;DHT22;1433;49.976;8.342;2022-10-26T10:21:34;16.90;99.90
2851;DHT22;1433;49.976;8.342;2022-10-26T10:27:03;17.10;99.90
2851;DHT22;1433;49.976;8.342;2022-10-26T10:29:41;17.40;99.90
2851;DHT22;1433;49.976;8.342;2022-10-26T10:32:01;17.70;99.90
2851;DHT22;1433;49.976;8.342;2022-10-26T10:34:29;17.90;99.90
2851;DHT22;1433;49.976;8.342;2022-10-26T10:36:57;18.10;99.90
2851;DHT22;1433;49.976;8.342;2022-10-26T10:42:00;18.30;99.90
2851;DHT22;1433;49.976;8.342;2022-10-26T10:44:28;18.50;99.90
2851;DHT22;1433;49.976;8.342;2022-10-26T10:47:03;18.80;99.90
2851;DHT22;1433;49.976;8.342;2022-10-26T10:49:31;18.80;99.90
2851;DHT22;1433;49.976;8.342;2022-10-26T10:51:58;18.90;99.90
2851;DHT22;1433;49.976;8.342;2022-10-26T10:54:34;19.10;99.90
2851;DHT22;1433;49.976;8.342;2022-10-26T10:57:18;19.30;99.90
2851;DHT22;1433;49.976;8.342;2022-10-26T10:59:59;19.20;99.90
2851;DHT22;1433;49.976;8.342;2022-10-26T11:09:01;19.40;1.00
2851;DHT22;1433;49.976;8.342;2022-10-26T11:14:30;19.70;1.00
2851;DHT22;1433;49.976;8.342;2022-10-26T11:19:56;20.00;1.00
2851;DHT22;1433;49.976;8.342;2022-10-26T11:22:33;20.00;1.00
2851;DHT22;1433;49.976;8.342;2022-10-26T11:25:10;20.00;1.00
2851;DHT22;1433;49.976;8.342;2022-10-26T11:27:46;19.70;1.00
2851;DHT22;1433;49.976;8.342;2022-10-26T11:30:22;19.60;1.00
2851;DHT22;1433;49.976;8.342;2022-10-26T11:32:59;19.60;23.90
2851;DHT22;1433;49.976;8.342;2022-10-26T11:35:31;19.70;80.70
2851;DHT22;1433;49.976;8.342;2022-10-26T11:41:00;20.20;1.00
2851;DHT22;1433;49.976;8.342;2022-10-26T11:43:47;20.20;99.90
2851;DHT22;1433;49.976;8.342;2022-10-26T11:46:17;20.10;1.00
2851;DHT22;1433;49.976;8.342;2022-10-26T11:54:48;20.30;99.90
2851;DHT22;1433;49.976;8.342;2022-10-26T11:57:18;20.30;52.50
2851;DHT22;1433;49.976;8.342;2022-10-26T11:59:52;20.00;99.90
2851;DHT22;1433;49.976;8.342;2022-10-26T12:02:24;20.00;1.00
2851;DHT22;1433;49.976;8.342;2022-10-26T12:07:37;20.00;1.00
2851;DHT22;1433;49.976;8.342;2022-10-26T12:10:23;20.10;1.00
2851;DHT22;1433;49.976;8.342;2022-10-26T12:15:23;20.30;1.00
2851;DHT22;1433;49.976;8.342;2022-10-26T12:20:54;20.90;1.00
2851;DHT22;1433;49.976;8.342;2022-10-26T12:23:22;21.00;1.00
2851;DHT22;1433;49.976;8.342;2022-10-26T12:25:48;21.30;99.90
2851;DHT22;1433;49.976;8.342;2022-10-26T12:33:59;21.10;1.00
2851;DHT22;1433;49.976;8.342;2022-10-26T12:39:36;21.60;99.90
2851;DHT22;1433;49.976;8.342;2022-10-26T12:52:55;22.10;99.90
2851;DHT22;1433;49.976;8.342;2022-10-26T13:04:49;22.00;1.00
2851;DHT22;1433;49.976;8.342;2022-10-26T13:07:21;22.10;1.00
2851;DHT22;1433;49.976;8.342;2022-10-26T13:09:58;22.30;1.00
2851;DHT22;1433;49.976;8.342;2022-10-26T13:12:27;22.20;99.90
2851;DHT22;1433;49.976;8.342;2022-10-26T13:14:59;22.40;1.00
2851;DHT22;1433;49.976;8.342;2022-10-26T13:17:31;22.70;1.00
2851;DHT22;1433;49.976;8.342;2022-10-26T13:20:03;23.00;1.00
2851;DHT22;1433;49.976;8.342;2022-10-26T13:22:31;23.50;1.00
2851;DHT22;1433;49.976;8.342;2022-10-26T13:25:00;24.00;99.90
2851;DHT22;1433;49.976;8.342;2022-10-26T13:30:20;24.20;1.00
2851;DHT22;1433;49.976;8.342;2022-10-26T13:32:54;24.10;1.00
2851;DHT22;1433;49.976;8.342;2022-10-26T13:35:23;24.00;1.00
2851;DHT22;1433;49.976;8.342;2022-10-26T13:37:52;24.20;96.60
2851;DHT22;1433;49.976;8.342;2022-10-26T13:40:22;24.50;1.00
2851;DHT22;1433;49.976;8.342;2022-10-26T13:43:01;24.70;1.00
2851;DHT22;1433;49.976;8.342;2022-10-26T13:45:33;25.10;1.00
2851;DHT22;1433;49.976;8.342;2022-10-26T13:48:03;25.60;1.00
2851;DHT22;1433;49.976;8.342;2022-10-26T13:56:32;25.50;1.00
2851;DHT22;1433;49.976;8.342;2022-10-26T13:59:12;25.10;1.00
2851;DHT22;1433;49.976;8.342;2022-10-26T14:01:38;25.20;1.00
2851;DHT22;1433;49.976;8.342;2022-10-26T14:04:15;25.20;1.00
2851;DHT22;1433;49.976;8.342;2022-10-26T14:06:47;24.80;1.00
2851;DHT22;1433;49.976;8.342;2022-10-26T14:09:17;24.90;1.00
2851;DHT22;1433;49.976;8.342;2022-10-26T14:11:56;25.10;1.00
2851;DHT22;1433;49.976;8.342;2022-10-26T14:14:27;24.80;1.00
2851;DHT22;1433;49.976;8.342;2022-10-26T14:16:56;24.50;1.00
2851;DHT22;1433;49.976;8.342;2022-10-26T14:19:31;23.80;1.00
2851;DHT22;1433;49.976;8.342;2022-10-26T14:22:02;23.30;99.90
2851;DHT22;1433;49.976;8.342;2022-10-26T14:24:31;23.10;99.90
2851;DHT22;1433;49.976;8.342;2022-10-26T14:26:59;22.60;1.00
2851;DHT22;1433;49.976;8.342;2022-10-26T14:29:31;22.20;1.00
2851;DHT22;1433;49.976;8.342;2022-10-26T14:31:57;22.00;99.90
2851;DHT22;1433;49.976;8.342;2022-10-26T14:34:23;22.00;99.90
2851;DHT22;1433;49.976;8.342;2022-10-26T14:37:01;22.00;1.00
2851;DHT22;1433;49.976;8.342;2022-10-26T14:39:39;22.10;1.00
2851;DHT22;1433;49.976;8.342;2022-10-26T14:42:34;22.20;1.00
2851;DHT22;1433;49.976;8.342;2022-10-26T14:44:58;22.30;1.00
2851;DHT22;1433;49.976;8.342;2022-10-26T14:47:30;22.00;1.00
2851;DHT22;1433;49.976;8.342;2022-10-26T14:49:58;22.00;1.00
2851;DHT22;1433;49.976;8.342;2022-10-26T14:52:30;22.00;18.80
2851;DHT22;1433;49.976;8.342;2022-10-26T14:55:09;22.00;36.60
2851;DHT22;1433;49.976;8.342;2022-10-26T14:57:35;22.00;99.90
2851;DHT22;1433;49.976;8.342;2022-10-26T15:00:18;22.00;99.90
2851;DHT22;1433;49.976;8.342;2022-10-26T15:02:55;21.90;99.90
2851;DHT22;1433;49.976;8.342;2022-10-26T15:07:59;21.60;1.00
2851;DHT22;1433;49.976;8.342;2022-10-26T15:13:29;21.50;99.90
2851;DHT22;1433;49.976;8.342;2022-10-26T15:16:10;21.40;99.90
2851;DHT22;1433;49.976;8.342;2022-10-26T15:18:47;21.20;10.80
2851;DHT22;1433;49.976;8.342;2022-10-26T15:23:57;21.00;99.90
2851;DHT22;1433;49.976;8.342;2022-10-26T15:26:24;20.90;1.00
2851;DHT22;1433;49.976;8.342;2022-10-26T15:28:52;20.80;99.90
2851;DHT22;1433;49.976;8.342;2022-10-26T15:31:26;20.70;1.00
2851;DHT22;1433;49.976;8.342;2022-10-26T15:36:24;20.50;1.00
2851;DHT22;1433;49.976;8.342;2022-10-26T15:38:57;20.40;1.00
2851;DHT22;1433;49.976;8.342;2022-10-26T15:41:27;20.30;99.90
2851;DHT22;1433;49.976;8.342;2022-10-26T15:44:00;20.20;1.00
2851;DHT22;1433;49.976;8.342;2022-10-26T15:46:32;20.20;1.00
2851;DHT22;1433;49.976;8.342;2022-10-26T15:49:02;20.10;99.90
2851;DHT22;1433;49.976;8.342;2022-10-26T15:51:30;20.00;99.90
2851;DHT22;1433;49.976;8.342;2022-10-26T15:53:58;19.90;1.00
2851;DHT22;1433;49.976;8.342;2022-10-26T15:56:27;19.80;1.00
2851;DHT22;1433;49.976;8.342;2022-10-26T15:58:53;19.70;1.00
2851;DHT22;1433;49.976;8.342;2022-10-26T16:01:24;19.60;1.00
2851;DHT22;1433;49.976;8.342;2022-10-26T16:03:52;19.50;1.00
2851;DHT22;1433;49.976;8.342;2022-10-26T16:06:27;19.40;1.00
2851;DHT22;1433;49.976;8.342;2022-10-26T16:08:57;19.30;1.00
2851;DHT22;1433;49.976;8.342;2022-10-26T16:11:27;19.20;38.90
2851;DHT22;1433;49.976;8.342;2022-10-26T16:13:54;19.10;55.70
2851;DHT22;1433;49.976;8.342;2022-10-26T16:16:20;19.00;99.90
2851;DHT22;1433;49.976;8.342;2022-10-26T16:18:53;18.80;99.90
2851;DHT22;1433;49.976;8.342;2022-10-26T16:21:19;18.70;99.90
2851;DHT22;1433;49.976;8.342;2022-10-26T16:23:47;18.60;99.90
2851;DHT22;1433;49.976;8.342;2022-10-26T16:26:15;18.50;99.90
2851;DHT22;1433;49.976;8.342;2022-10-26T16:28:42;18.40;99.90
2851;DHT22;1433;49.976;8.342;2022-10-26T16:31:13;18.30;99.90
2851;DHT22;1433;49.976;8.342;2022-10-26T16:33:41;18.20;99.90
2851;DHT22;1433;49.976;8.342;2022-10-26T16:36:10;18.00;99.90
2851;DHT22;1433;49.976;8.342;2022-10-26T16:38:37;17.90;99.90
2851;DHT22;1433;49.976;8.342;2022-10-26T16:41:09;17.80;99.90
2851;DHT22;1433;49.976;8.342;2022-10-26T16:43:40;17.60;99.90
2851;DHT22;1433;49.976;8.342;2022-10-26T16:46:12;17.50;99.90
2851;DHT22;1433;49.976;8.342;2022-10-26T16:48:41;17.40;99.90
2851;DHT22;1433;49.976;8.342;2022-10-26T16:51:22;17.30;99.90
2851;DHT22;1433;49.976;8.342;2022-10-26T16:53:51;17.10;99.90
2851;DHT22;1433;49.976;8.342;2022-10-26T16:56:20;17.00;99.90
2851;DHT22;1433;49.976;8.342;2022-10-26T16:58:48;17.00;99.90
2851;DHT22;1433;49.976;8.342;2022-10-26T17:01:15;16.90;99.90
2851;DHT22;1433;49.976;8.342;2022-10-26T17:03:47;16.70;99.90
2851;DHT22;1433;49.976;8.342;2022-10-26T17:06:15;16.60;99.90
2851;DHT22;1433;49.976;8.342;2022-10-26T17:08:43;16.50;99.90
2851;DHT22;1433;49.976;8.342;2022-10-26T17:11:16;16.40;99.90
2851;DHT22;1433;49.976;8.342;2022-10-26T17:13:42;16.30;99.90
2851;DHT22;1433;49.976;8.342;2022-10-26T17:16:17;16.20;99.90
2851;DHT22;1433;49.976;8.342;2022-10-26T17:18:46;16.10;99.90
2851;DHT22;1433;49.976;8.342;2022-10-26T17:21:14;16.00;99.90
2851;DHT22;1433;49.976;8.342;2022-10-26T17:23:41;15.80;99.90
2851;DHT22;1433;49.976;8.342;2022-10-26T17:26:13;15.70;99.90
2851;DHT22;1433;49.976;8.342;2022-10-26T17:28:40;15.60;99.90
2851;DHT22;1433;49.976;8.342;2022-10-26T17:31:08;15.50;99.90
2851;DHT22;1433;49.976;8.342;2022-10-26T17:33:37;15.40;99.90
2851;DHT22;1433;49.976;8.342;2022-10-26T17:36:05;15.30;99.90
2851;DHT22;1433;49.976;8.342;2022-10-26T17:38:37;15.30;99.90
2851;DHT22;1433;49.976;8.342;2022-10-26T17:41:07;15.20;99.90
2851;DHT22;1433;49.976;8.342;2022-10-26T17:43:37;15.10;99.90
2851;DHT22;1433;49.976;8.342;2022-10-26T17:46:08;15.20;99.90
2851;DHT22;1433;49.976;8.342;2022-10-26T17:48:35;15.10;99.90
2851;DHT22;1433;49.976;8.342;2022-10-26T17:51:04;15.20;99.90
2851;DHT22;1433;49.976;8.342;2022-10-26T17:53:32;15.10;99.90
2851;DHT22;1433;49.976;8.342;2022-10-26T17:56:11;15.10;99.90
2851;DHT22;1433;49.976;8.342;2022-10-26T17:58:38;15.00;99.90
2851;DHT22;1433;49.976;8.342;2022-10-26T18:01:08;15.20;99.90
2851;DHT22;1433;49.976;8.342;2022-10-26T18:03:37;15.20;99.90
2851;DHT22;1433;49.976;8.342;2022-10-26T18:06:04;15.10;99.90
2851;DHT22;1433;49.976;8.342;2022-10-26T18:08:33;14.90;99.90
2851;DHT22;1433;49.976;8.342;2022-10-26T18:11:01;14.90;99.90
2851;DHT22;1433;49.976;8.342;2022-10-26T18:13:29;14.80;99.90
2851;DHT22;1433;49.976;8.342;2022-10-26T18:16:03;14.70;99.90
2851;DHT22;1433;49.976;8.342;2022-10-26T18:18:31;14.60;99.90
2851;DHT22;1433;49.976;8.342;2022-10-26T18:21:03;14.50;99.90
2851;DHT22;1433;49.976;8.342;2022-10-26T18:23:36;14.50;99.90
2851;DHT22;1433;49.976;8.342;2022-10-26T18:26:05;14.40;99.90
2851;DHT22;1433;49.976;8.342;2022-10-26T18:28:34;14.40;99.90
2851;DHT22;1433;49.976;8.342;2022-10-26T18:31:09;14.30;99.90
2851;DHT22;1433;49.976;8.342;2022-10-26T18:33:34;14.30;99.90
2851;DHT22;1433;49.976;8.342;2022-10-26T18:36:06;14.30;99.90
2851;DHT22;1433;49.976;8.342;2022-10-26T18:38:34;14.20;99.90
2851;DHT22;1433;49.976;8.342;2022-10-26T18:41:01;14.10;99.90
2851;DHT22;1433;49.976;8.342;2022-10-26T18:43:28;14.10;99.90
2851;DHT22;1433;49.976;8.342;2022-10-26T18:46:03;14.10;99.90
2851;DHT22;1433;49.976;8.342;2022-10-26T18:48:31;14.00;99.90
2851;DHT22;1433;49.976;8.342;2022-10-26T18:51:02;14.00;99.90
2851;DHT22;1433;49.976;8.342;2022-10-26T18:53:34;14.00;99.90
2851;DHT22;1433;49.976;8.342;2022-10-26T18:56:06;13.90;99.90
2851;DHT22;1433;49.976;8.342;2022-10-26T18:58:39;13.80;99.90
2851;DHT22;1433;49.976;8.342;2022-10-26T19:01:21;13.80;99.90
2851;DHT22;1433;49.976;8.342;2022-10-26T19:04:05;13.80;99.90
2851;DHT22;1433;49.976;8.342;2022-10-26T19:06:32;13.70;99.90